Aviation Digital Data Service (ADDS)

Output produced by TAFs form (0920 UTC 13 December 2017)
found at http://www.aviationweather.gov/adds/tafs/
 
KPNS 130853Z AUTO 35007KT 10SM CLR 06/00 A3013 RMK AO2 SLP205 T00560000 53004
KPNS 130549Z 1306/1406 32007KT P6SM SKC 
     FM130900 35005KT P6SM SKC 
     FM132100 21013KT P6SM SKC